createdAt,value
2019-01-19T00:02:00.929Z,-2.00
2019-01-19T00:04:37.472Z,-2.10
2019-01-19T00:07:02.053Z,-2.10
2019-01-19T00:09:11.556Z,-2.10
2019-01-19T00:11:33.304Z,-2.10
2019-01-19T00:13:45.546Z,-2.10
2019-01-19T00:15:55.214Z,-2.10
2019-01-19T00:18:13.692Z,-2.20
2019-01-19T00:20:47.099Z,-2.20
2019-01-19T00:23:17.563Z,-2.10
2019-01-19T00:25:29.969Z,-2.20
2019-01-19T00:27:36.674Z,-2.20
2019-01-19T00:29:49.007Z,-2.20
2019-01-19T00:31:58.420Z,-2.20
2019-01-19T00:34:34.961Z,-2.30
2019-01-19T00:36:41.656Z,-2.30
2019-01-19T00:39:07.650Z,-2.30
2019-01-19T00:41:14.383Z,-2.30
2019-01-19T00:43:18.839Z,-2.30
2019-01-19T00:45:27.458Z,-2.30
2019-01-19T00:47:51.578Z,-2.30
2019-01-19T00:49:58.272Z,-2.30
2019-01-19T00:52:22.659Z,-2.30
2019-01-19T00:54:29.324Z,-2.30
2019-01-19T00:56:48.209Z,-2.40
2019-01-19T00:58:55.232Z,-2.40
2019-01-19T01:01:10.733Z,-2.40
2019-01-19T01:03:30.116Z,-2.40
2019-01-19T01:05:36.866Z,-2.40
2019-01-19T01:07:49.553Z,-2.40
2019-01-19T01:10:10.972Z,-2.40
2019-01-19T01:12:26.375Z,-2.50
2019-01-19T01:14:51.176Z,-2.50
2019-01-19T01:16:57.970Z,-2.50
2019-01-19T01:19:10.773Z,-2.50
2019-01-19T01:21:39.766Z,-2.50
2019-01-19T01:24:05.770Z,-2.50
2019-01-19T01:26:27.470Z,-2.50
2019-01-19T01:28:58.069Z,-2.50
2019-01-19T01:31:27.019Z,-2.50
2019-01-19T01:33:50.015Z,-2.50
2019-01-19T01:36:08.605Z,-2.50
2019-01-19T01:38:29.934Z,-2.60
2019-01-19T01:40:42.442Z,-2.60
2019-01-19T01:42:51.979Z,-2.60
2019-01-19T01:45:04.525Z,-2.60
2019-01-19T01:47:45.556Z,-2.60
2019-01-19T01:49:55.298Z,-2.60
2019-01-19T01:52:18.617Z,-2.60
2019-01-19T01:54:31.373Z,-2.70
2019-01-19T01:56:35.150Z,-2.70
2019-01-19T01:58:44.854Z,-2.70
2019-01-19T02:00:57.231Z,-2.70
2019-01-19T02:03:18.958Z,-2.80
2019-01-19T02:05:40.175Z,-2.80
2019-01-19T02:07:57.687Z,-2.80
2019-01-19T02:10:07.185Z,-2.80
2019-01-19T02:12:46.267Z,-2.90
2019-01-19T02:14:58.625Z,-2.90
2019-01-19T02:17:08.005Z,-2.90
2019-01-19T02:19:34.052Z,-2.90
2019-01-19T02:22:10.136Z,-2.90
2019-01-19T02:24:25.461Z,-3.00
2019-01-19T02:26:44.781Z,-3.00
2019-01-19T02:29:05.984Z,-3.00
2019-01-19T02:31:21.442Z,-3.00
2019-01-19T02:33:28.139Z,-3.00
2019-01-19T02:35:34.836Z,-3.00
2019-01-19T02:37:41.573Z,-3.10
2019-01-19T02:40:12.417Z,-3.10
2019-01-19T02:42:38.488Z,-3.10
2019-01-19T02:44:50.365Z,-3.10
2019-01-19T02:47:08.794Z,-3.10
2019-01-19T02:49:18.232Z,-3.10
2019-01-19T02:51:48.610Z,-3.10
2019-01-19T02:53:55.389Z,-3.10
2019-01-19T02:56:21.390Z,-3.10
2019-01-19T02:58:28.191Z,-3.00
2019-01-19T03:00:40.391Z,-2.90
2019-01-19T03:03:11.213Z,-2.90
2019-01-19T03:05:17.997Z,-2.70
2019-01-19T03:07:36.345Z,-2.60
2019-01-19T03:10:00.684Z,-2.60
2019-01-19T03:12:19.263Z,-2.50
2019-01-19T03:14:31.853Z,-2.50
2019-01-19T03:16:50.182Z,-2.50
2019-01-19T03:19:05.707Z,-2.50
2019-01-19T03:21:27.433Z,-2.50
2019-01-19T03:23:43.045Z,-2.40
2019-01-19T03:25:58.414Z,-2.40
2019-01-19T03:28:05.214Z,-2.40
2019-01-19T03:30:14.667Z,-2.40
2019-01-19T03:32:27.184Z,-2.40
2019-01-19T03:34:57.554Z,-2.40
2019-01-19T03:37:15.588Z,-2.40
2019-01-19T03:39:41.498Z,-2.40
2019-01-19T03:42:03.981Z,-2.40
2019-01-19T03:44:19.374Z,-2.40
2019-01-19T03:46:26.677Z,-2.40
2019-01-19T03:48:42.272Z,-2.40
2019-01-19T03:50:54.561Z,-2.40
2019-01-19T03:53:01.229Z,-2.40
2019-01-19T03:55:27.257Z,-2.40
2019-01-19T03:57:34.005Z,-2.30
2019-01-19T03:59:46.405Z,-2.20
2019-01-19T04:02:02.850Z,-2.20
2019-01-19T04:04:21.535Z,-2.20
2019-01-19T04:06:33.824Z,-2.20
2019-01-19T04:08:58.225Z,-2.10
2019-01-19T04:11:07.600Z,-2.10
2019-01-19T04:13:39.474Z,-2.20
2019-01-19T04:15:49.021Z,-2.10
2019-01-19T04:18:10.610Z,-2.10
2019-01-19T04:20:34.884Z,-2.00
2019-01-19T04:22:38.838Z,-2.10
2019-01-19T04:24:48.289Z,-2.10
2019-01-19T04:26:52.146Z,-2.10
2019-01-19T04:28:56.079Z,-2.10
2019-01-19T04:30:59.857Z,-2.20
2019-01-19T04:33:03.726Z,-2.20
2019-01-19T04:35:07.529Z,-2.20
2019-01-19T04:37:11.262Z,-2.30
2019-01-19T04:39:15.006Z,-2.30
2019-01-19T04:41:18.727Z,-2.30
2019-01-19T04:43:22.452Z,-2.30
2019-01-19T04:45:26.225Z,-2.30
2019-01-19T04:47:29.903Z,-2.30
2019-01-19T04:49:33.608Z,-2.20
2019-01-19T04:51:37.319Z,-2.20
2019-01-19T04:53:41.081Z,-2.20
2019-01-19T04:55:44.963Z,-2.30
2019-01-19T04:57:48.638Z,-2.30
2019-01-19T04:59:52.289Z,-2.30
2019-01-19T05:01:56.084Z,-2.30
2019-01-19T05:03:59.809Z,-2.30
2019-01-19T05:06:11.755Z,-2.30
2019-01-19T05:08:08.986Z,-2.30
2019-01-19T05:10:13.146Z,-2.30
2019-01-19T05:12:16.925Z,-2.30
2019-01-19T05:14:20.567Z,-2.30
2019-01-19T05:16:24.311Z,-2.30
2019-01-19T05:18:28.119Z,-2.30
2019-01-19T05:20:31.952Z,-2.30
2019-01-19T05:22:35.669Z,-2.40
2019-01-19T05:24:39.372Z,-2.40
2019-01-19T05:26:43.143Z,-2.40
2019-01-19T05:28:46.807Z,-2.40
2019-01-19T05:30:50.467Z,-2.40
2019-01-19T05:32:54.207Z,-2.40
2019-01-19T05:34:58.439Z,-2.40
2019-01-19T05:37:02.241Z,-2.40
2019-01-19T05:39:07.410Z,-2.50
2019-01-19T05:41:11.148Z,-2.50
2019-01-19T05:43:14.851Z,-2.50
2019-01-19T05:45:18.659Z,-2.50
2019-01-19T05:47:22.533Z,-2.50
2019-01-19T05:49:26.346Z,-2.50
2019-01-19T05:51:30.058Z,-2.50
2019-01-19T05:53:33.829Z,-2.50
2019-01-19T05:55:37.517Z,-2.50
2019-01-19T05:57:41.320Z,-2.50
2019-01-19T05:59:44.989Z,-2.60
2019-01-19T06:01:48.755Z,-2.50
2019-01-19T06:03:52.473Z,-2.60
2019-01-19T06:05:56.254Z,-2.60
2019-01-19T06:08:00.055Z,-2.60
2019-01-19T06:10:05.481Z,-2.60
2019-01-19T06:12:09.238Z,-2.60
2019-01-19T06:14:12.924Z,-2.60
2019-01-19T06:16:17.004Z,-2.60
2019-01-19T06:18:20.741Z,-2.60
2019-01-19T06:20:24.463Z,-2.70
2019-01-19T06:22:28.152Z,-2.70
2019-01-19T06:24:31.849Z,-2.70
2019-01-19T06:26:35.515Z,-2.70
2019-01-19T06:28:39.165Z,-2.70
2019-01-19T06:30:42.822Z,-2.70
2019-01-19T06:32:46.559Z,-2.70
2019-01-19T06:34:50.326Z,-2.70
2019-01-19T06:36:55.742Z,-2.70
2019-01-19T06:38:59.574Z,-2.70
2019-01-19T06:41:03.292Z,-2.80
2019-01-19T06:43:06.995Z,-2.80
2019-01-19T06:45:15.998Z,-2.80
2019-01-19T06:47:19.756Z,-2.80
2019-01-19T06:49:23.488Z,-2.80
2019-01-19T06:51:27.223Z,-2.80
2019-01-19T06:53:30.972Z,-2.80
2019-01-19T06:55:35.035Z,-2.80
2019-01-19T06:57:38.651Z,-2.80
2019-01-19T06:59:42.382Z,-2.80
2019-01-19T07:01:47.987Z,-2.80
2019-01-19T07:03:51.642Z,-2.80
2019-01-19T07:05:55.372Z,-2.80
2019-01-19T07:08:00.339Z,-2.80
2019-01-19T07:10:06.668Z,-2.80
2019-01-19T07:12:11.029Z,-2.80
2019-01-19T07:14:14.710Z,-2.70
2019-01-19T07:16:18.373Z,-2.70
2019-01-19T07:18:22.086Z,-2.70
2019-01-19T07:20:27.825Z,-2.60
2019-01-19T07:22:31.511Z,-2.50
2019-01-19T07:24:35.320Z,-2.50
2019-01-19T07:26:39.175Z,-2.50
2019-01-19T07:28:42.819Z,-2.40
2019-01-19T07:30:49.116Z,-2.40
2019-01-19T07:32:52.850Z,-2.40
2019-01-19T07:34:56.597Z,-2.30
2019-01-19T07:37:01.961Z,-2.30
2019-01-19T07:39:07.374Z,-2.30
2019-01-19T07:41:11.226Z,-2.30
2019-01-19T07:43:15.086Z,-2.20
2019-01-19T07:45:18.806Z,-2.20
2019-01-19T07:47:22.860Z,-2.20
2019-01-19T07:49:26.562Z,-2.20
2019-01-19T07:51:30.282Z,-2.20
2019-01-19T07:53:34.504Z,-2.20
2019-01-19T07:55:38.366Z,-2.20
2019-01-19T07:57:42.858Z,-2.20
2019-01-19T07:59:46.643Z,-2.10
2019-01-19T08:01:50.457Z,-2.10
2019-01-19T08:03:54.198Z,-2.10
2019-01-19T08:05:57.891Z,-2.10
2019-01-19T08:08:01.685Z,-2.10
2019-01-19T08:10:14.089Z,-2.10
2019-01-19T08:12:17.799Z,-2.00
2019-01-19T08:14:21.809Z,-1.90
2019-01-19T08:16:25.607Z,-1.90
2019-01-19T08:18:29.307Z,-1.90
2019-01-19T08:20:33.009Z,-1.90
2019-01-19T08:22:36.679Z,-1.90
2019-01-19T08:24:40.688Z,-1.80
2019-01-19T08:26:44.606Z,-1.70
2019-01-19T08:28:48.361Z,-1.40
2019-01-19T08:30:52.911Z,-1.00
2019-01-19T08:32:56.739Z,-0.70
2019-01-19T08:35:00.677Z,-0.30
2019-01-19T08:37:04.428Z,0.00
2019-01-19T08:39:08.256Z,0.40
2019-01-19T08:41:12.516Z,0.90
2019-01-19T08:43:30.174Z,1.40
2019-01-19T08:45:33.949Z,1.90
2019-01-19T08:47:37.736Z,2.30
2019-01-19T08:49:41.568Z,2.40
2019-01-19T08:51:45.310Z,2.60
2019-01-19T08:53:49.059Z,3.30
2019-01-19T08:55:52.784Z,3.80
2019-01-19T08:57:56.653Z,4.10
2019-01-19T09:00:00.447Z,3.90
2019-01-19T09:02:05.296Z,4.00
2019-01-19T09:04:09.083Z,4.40
2019-01-19T09:06:12.757Z,4.50
2019-01-19T09:08:16.578Z,4.40
2019-01-19T09:10:20.607Z,4.60
2019-01-19T09:12:24.328Z,4.80
2019-01-19T09:14:28.047Z,4.70
2019-01-19T09:16:39.588Z,4.40
2019-01-19T09:18:38.713Z,3.40
2019-01-19T09:20:42.396Z,2.80
2019-01-19T09:22:47.844Z,2.30
2019-01-19T09:24:51.571Z,1.90
2019-01-19T09:26:55.477Z,1.50
2019-01-19T09:28:59.286Z,1.40
2019-01-19T09:31:03.140Z,1.30
2019-01-19T09:33:06.925Z,1.20
2019-01-19T09:35:11.263Z,1.20
2019-01-19T09:37:14.983Z,1.10
2019-01-19T09:39:18.752Z,0.90
2019-01-19T09:41:22.547Z,0.70
2019-01-19T09:43:26.379Z,0.60
2019-01-19T09:45:32.619Z,0.70
2019-01-19T09:47:36.492Z,0.70
2019-01-19T09:49:40.267Z,0.80
2019-01-19T09:51:45.168Z,0.90
2019-01-19T09:53:48.934Z,0.90
2019-01-19T09:55:52.628Z,0.80
2019-01-19T09:57:56.407Z,0.80
2019-01-19T10:00:00.363Z,0.80
2019-01-19T10:02:04.181Z,0.90
2019-01-19T10:04:08.038Z,1.30
2019-01-19T10:06:11.932Z,2.10
2019-01-19T10:08:15.673Z,3.10
2019-01-19T10:10:19.491Z,3.80
2019-01-19T10:12:23.352Z,4.40
2019-01-19T10:14:27.174Z,4.90
2019-01-19T10:16:30.920Z,5.40
2019-01-19T10:18:34.976Z,5.60
2019-01-19T10:20:38.635Z,5.50
2019-01-19T10:22:42.356Z,5.80
2019-01-19T10:24:46.161Z,6.30
2019-01-19T10:26:49.964Z,7.20
2019-01-19T10:28:54.003Z,7.40
2019-01-19T10:30:57.837Z,7.80
2019-01-19T10:33:01.677Z,8.20
2019-01-19T10:35:08.848Z,8.50
2019-01-19T10:37:12.412Z,8.50
2019-01-19T10:39:16.214Z,8.70
2019-01-19T10:41:19.786Z,8.60
2019-01-19T10:43:23.558Z,8.30
2019-01-19T10:45:29.078Z,7.70
2019-01-19T10:47:32.807Z,7.30
2019-01-19T10:49:36.657Z,7.30
2019-01-19T10:51:40.437Z,7.30
2019-01-19T10:53:44.192Z,6.90
2019-01-19T10:55:48.003Z,6.50
2019-01-19T10:57:51.717Z,6.70
2019-01-19T10:59:55.497Z,7.20
2019-01-19T11:01:59.117Z,7.10
2019-01-19T11:04:03.409Z,6.80
2019-01-19T11:06:07.211Z,6.70
2019-01-19T11:08:12.212Z,6.40
2019-01-19T11:10:18.460Z,6.30
2019-01-19T11:12:22.182Z,6.30
2019-01-19T11:14:25.832Z,6.50
2019-01-19T11:16:29.685Z,6.80
2019-01-19T11:18:33.342Z,7.20
2019-01-19T11:20:37.027Z,7.20
2019-01-19T11:22:40.781Z,7.50
2019-01-19T11:24:46.148Z,7.90
2019-01-19T11:26:49.936Z,8.60
2019-01-19T11:28:53.530Z,9.20
2019-01-19T11:30:57.279Z,9.90
2019-01-19T11:33:01.080Z,10.30
2019-01-19T11:35:05.402Z,10.60
2019-01-19T11:37:09.268Z,10.40
2019-01-19T11:39:12.981Z,9.80
2019-01-19T11:41:16.733Z,9.60
2019-01-19T11:43:20.535Z,9.50
2019-01-19T11:45:25.195Z,9.50
2019-01-19T11:47:29.055Z,9.50
2019-01-19T11:49:32.671Z,9.80
2019-01-19T11:51:36.415Z,9.70
2019-01-19T11:53:40.296Z,9.70
2019-01-19T11:55:44.031Z,10.20
2019-01-19T11:57:49.450Z,10.40
2019-01-19T11:59:53.180Z,10.60
2019-01-19T12:01:56.874Z,10.50
2019-01-19T12:04:00.540Z,10.30
2019-01-19T12:06:05.628Z,9.90
2019-01-19T12:08:10.018Z,9.80
2019-01-19T12:10:18.950Z,9.60
2019-01-19T12:12:22.564Z,9.60
2019-01-19T12:14:26.290Z,9.30
2019-01-19T12:16:30.046Z,9.00
2019-01-19T12:18:33.690Z,8.80
2019-01-19T12:20:39.472Z,9.00
2019-01-19T12:22:43.283Z,8.70
2019-01-19T12:24:46.993Z,8.90
2019-01-19T12:26:50.875Z,8.50
2019-01-19T12:28:54.667Z,8.30
2019-01-19T12:30:58.314Z,8.00
2019-01-19T12:33:02.176Z,7.80
2019-01-19T12:35:06.503Z,8.30
2019-01-19T12:37:10.262Z,8.60
2019-01-19T12:39:14.018Z,8.40
2019-01-19T12:41:17.731Z,8.20
2019-01-19T12:43:21.520Z,8.40
2019-01-19T12:45:30.535Z,8.40
2019-01-19T12:47:34.350Z,8.10
2019-01-19T12:49:38.005Z,8.00
2019-01-19T12:51:41.856Z,7.90
2019-01-19T12:53:45.664Z,8.00
2019-01-19T12:55:49.407Z,8.20
2019-01-19T12:57:53.263Z,8.00
2019-01-19T12:59:56.962Z,7.90
2019-01-19T13:02:00.720Z,7.50
2019-01-19T13:04:04.480Z,7.40
2019-01-19T13:06:13.866Z,7.60
2019-01-19T13:08:20.628Z,8.00
2019-01-19T13:10:38.952Z,8.20
2019-01-19T13:12:42.845Z,8.40
2019-01-19T13:14:50.784Z,8.50
2019-01-19T13:17:00.176Z,8.60
2019-01-19T13:19:12.096Z,8.50
2019-01-19T13:21:40.951Z,8.10
2019-01-19T13:24:20.415Z,7.70
2019-01-19T13:26:43.408Z,7.60
2019-01-19T13:29:01.751Z,7.20
2019-01-19T13:31:30.724Z,7.00
2019-01-19T13:34:07.803Z,7.10
2019-01-19T13:36:26.232Z,7.40
2019-01-19T13:38:41.996Z,7.70
2019-01-19T13:40:50.008Z,8.10
2019-01-19T13:43:05.498Z,8.20
2019-01-19T13:45:26.899Z,7.70
2019-01-19T13:47:51.527Z,7.30
2019-01-19T13:50:13.070Z,7.00
2019-01-19T13:52:31.406Z,6.80
2019-01-19T13:55:00.440Z,6.90
2019-01-19T13:57:25.112Z,7.10
2019-01-19T13:59:35.798Z,7.30
2019-01-19T14:02:15.160Z,7.40
2019-01-19T14:04:22.561Z,7.50
2019-01-19T14:06:31.860Z,7.50
2019-01-19T14:08:53.540Z,7.30
2019-01-19T14:11:06.018Z,7.10
2019-01-19T14:13:27.463Z,7.10
2019-01-19T14:15:46.214Z,7.10
2019-01-19T14:18:15.103Z,7.00
2019-01-19T14:20:36.914Z,6.90
2019-01-19T14:22:49.809Z,6.00
2019-01-19T14:25:08.229Z,5.20
2019-01-19T14:27:44.992Z,4.40
2019-01-19T14:30:00.410Z,4.20
2019-01-19T14:32:22.011Z,4.10
2019-01-19T14:34:56.074Z,4.00
2019-01-19T14:37:02.846Z,4.00
2019-01-19T14:39:25.408Z,3.90
2019-01-19T14:41:55.911Z,3.80
2019-01-19T14:44:25.263Z,3.60
2019-01-19T14:46:49.577Z,3.40
2019-01-19T14:49:29.394Z,3.40
2019-01-19T14:52:07.375Z,3.50
2019-01-19T14:54:31.392Z,3.40
2019-01-19T14:56:55.786Z,3.30
2019-01-19T14:59:08.021Z,3.00
2019-01-19T15:01:17.589Z,2.80
2019-01-19T15:03:36.077Z,2.80
2019-01-19T15:05:45.413Z,2.70
2019-01-19T15:07:52.215Z,2.60
2019-01-19T15:10:04.508Z,2.40
2019-01-19T15:12:33.428Z,2.00
2019-01-19T15:15:05.412Z,2.00
2019-01-19T15:17:12.124Z,2.00
2019-01-19T15:19:27.629Z,1.80
2019-01-19T15:21:45.977Z,1.80
2019-01-19T15:23:55.063Z,1.60
2019-01-19T15:26:08.570Z,1.60
2019-01-19T15:28:17.715Z,1.50
2019-01-19T15:30:36.576Z,1.50
2019-01-19T15:32:59.615Z,1.40
2019-01-19T15:35:14.919Z,1.50
2019-01-19T15:37:45.681Z,1.40
2019-01-19T15:39:55.021Z,1.40
2019-01-19T15:42:26.846Z,1.40
2019-01-19T15:44:48.230Z,1.40
2019-01-19T15:46:59.510Z,1.40
2019-01-19T15:49:22.914Z,1.30
2019-01-19T15:51:32.889Z,1.20
2019-01-19T15:53:39.659Z,1.20
2019-01-19T15:55:46.623Z,1.10
2019-01-19T15:58:05.479Z,1.00
2019-01-19T16:00:48.333Z,0.90
2019-01-19T16:03:15.707Z,0.80
2019-01-19T16:05:41.826Z,0.80
2019-01-19T16:08:12.666Z,0.70
2019-01-19T16:10:23.955Z,0.70
2019-01-19T16:12:30.807Z,0.70
2019-01-19T16:15:10.724Z,0.70
2019-01-19T16:17:42.697Z,0.60
2019-01-19T16:19:55.026Z,0.60
2019-01-19T16:22:13.400Z,0.60
2019-01-19T16:24:26.102Z,0.50
2019-01-19T16:26:33.032Z,0.50
2019-01-19T16:28:55.767Z,0.50
2019-01-19T16:31:25.626Z,0.50
2019-01-19T16:33:38.028Z,0.50
2019-01-19T16:35:50.497Z,0.50
2019-01-19T16:38:20.342Z,0.40
2019-01-19T16:40:55.666Z,0.50
2019-01-19T16:43:26.610Z,0.50
2019-01-19T16:46:06.177Z,0.40
2019-01-19T16:48:15.715Z,0.40
2019-01-19T16:50:41.653Z,0.40
2019-01-19T16:53:00.303Z,0.40
2019-01-19T16:55:18.970Z,0.30
2019-01-19T16:57:31.491Z,0.30
2019-01-19T16:59:50.826Z,0.20
2019-01-19T17:02:15.211Z,0.20
2019-01-19T17:04:27.702Z,0.20
2019-01-19T17:06:48.952Z,0.20
2019-01-19T17:09:01.222Z,0.10
2019-01-19T17:11:13.776Z,0.10
2019-01-19T17:13:34.649Z,0.00
2019-01-19T17:15:43.959Z,0.00
2019-01-19T17:18:08.791Z,0.00
2019-01-19T17:20:21.272Z,-0.10
2019-01-19T17:22:30.620Z,-0.10
2019-01-19T17:24:45.946Z,-0.10
2019-01-19T17:27:04.377Z,-0.20
2019-01-19T17:29:19.954Z,-0.20
2019-01-19T17:31:44.365Z,-0.20
2019-01-19T17:33:51.074Z,-0.30
2019-01-19T17:36:06.248Z,-0.30
2019-01-19T17:38:21.384Z,-0.40
2019-01-19T17:40:47.137Z,-0.40
2019-01-19T17:43:02.763Z,-0.40
2019-01-19T17:45:14.998Z,-0.40
2019-01-19T17:47:24.637Z,-0.40
2019-01-19T17:49:39.926Z,-0.50
2019-01-19T17:52:04.425Z,-0.50
2019-01-19T17:54:22.908Z,-0.50
2019-01-19T17:56:38.226Z,-0.60
2019-01-19T17:59:02.813Z,-0.60
2019-01-19T18:01:18.317Z,-0.60
2019-01-19T18:03:43.097Z,-0.60
2019-01-19T18:05:58.762Z,-0.60
2019-01-19T18:08:23.305Z,-0.60
2019-01-19T18:10:32.841Z,-0.70
2019-01-19T18:12:58.892Z,-0.70
2019-01-19T18:15:33.825Z,-0.70
2019-01-19T18:17:40.504Z,-0.80
2019-01-19T18:19:52.657Z,-0.80
2019-01-19T18:22:20.399Z,-0.80
2019-01-19T18:24:47.804Z,-0.80
2019-01-19T18:26:54.482Z,-0.90
2019-01-19T18:29:26.366Z,-0.90
2019-01-19T18:31:41.370Z,-0.90
2019-01-19T18:33:48.040Z,-1.00
2019-01-19T18:36:06.432Z,-1.00
2019-01-19T18:38:18.893Z,-1.00
2019-01-19T18:40:44.921Z,-1.10
2019-01-19T18:43:04.968Z,-1.10
2019-01-19T18:45:11.669Z,-1.10
2019-01-19T18:47:26.928Z,-1.10
2019-01-19T18:49:55.941Z,-1.20
2019-01-19T18:52:11.650Z,-1.20
2019-01-19T18:54:40.527Z,-1.20
2019-01-19T18:57:21.480Z,-1.30
2019-01-19T18:59:36.759Z,-1.30
2019-01-19T19:01:46.288Z,-1.30
2019-01-19T19:04:09.397Z,-1.40
2019-01-19T19:06:19.155Z,-1.50
2019-01-19T19:08:34.400Z,-1.60
2019-01-19T19:10:57.394Z,-1.70
2019-01-19T19:13:12.901Z,-1.70
2019-01-19T19:15:19.650Z,-1.80
2019-01-19T19:17:39.466Z,-1.80
2019-01-19T19:19:46.239Z,-1.80
2019-01-19T19:22:01.679Z,-1.80
2019-01-19T19:24:19.577Z,-1.80
2019-01-19T19:26:57.908Z,-1.80
2019-01-19T19:29:22.262Z,-1.90
2019-01-19T19:31:48.220Z,-1.80
2019-01-19T19:34:00.429Z,-1.90
2019-01-19T19:36:31.050Z,-1.90
2019-01-19T19:38:40.682Z,-1.90
2019-01-19T19:41:02.440Z,-1.90
2019-01-19T19:43:09.273Z,-1.90
2019-01-19T19:45:32.049Z,-1.90
2019-01-19T19:47:41.871Z,-2.00
2019-01-19T19:49:54.233Z,-2.00
2019-01-19T19:52:00.349Z,-2.00
2019-01-19T19:54:04.206Z,-2.00
2019-01-19T19:56:06.867Z,-2.00
2019-01-19T19:58:10.637Z,-2.00
2019-01-19T20:00:14.697Z,-2.10
2019-01-19T20:02:18.344Z,-2.10
2019-01-19T20:04:22.116Z,-2.10
2019-01-19T20:06:25.935Z,-2.10
2019-01-19T20:08:29.706Z,-2.10
2019-01-19T20:10:33.445Z,-2.20
2019-01-19T20:12:37.148Z,-2.20
2019-01-19T20:14:41.430Z,-2.20
2019-01-19T20:16:45.531Z,-2.20
2019-01-19T20:18:49.328Z,-2.20
2019-01-19T20:20:53.062Z,-2.20
2019-01-19T20:22:56.830Z,-2.30
2019-01-19T20:25:00.671Z,-2.30
2019-01-19T20:27:04.405Z,-2.30
2019-01-19T20:29:08.183Z,-2.30
2019-01-19T20:31:11.753Z,-2.30
2019-01-19T20:33:15.718Z,-2.30
2019-01-19T20:35:19.442Z,-2.30
2019-01-19T20:37:23.206Z,-2.40
2019-01-19T20:39:27.068Z,-2.30
2019-01-19T20:41:30.827Z,-2.40
2019-01-19T20:43:34.694Z,-2.40
2019-01-19T20:45:39.718Z,-2.40
2019-01-19T20:47:43.350Z,-2.40
2019-01-19T20:49:47.243Z,-2.50
2019-01-19T20:51:51.494Z,-2.50
2019-01-19T20:53:55.297Z,-2.50
2019-01-19T20:55:58.978Z,-2.60
2019-01-19T20:58:02.834Z,-2.60
2019-01-19T21:00:15.774Z,-2.70
2019-01-19T21:02:19.515Z,-2.70
2019-01-19T21:04:23.360Z,-2.70
2019-01-19T21:06:28.363Z,-2.80
2019-01-19T21:08:32.173Z,-2.80
2019-01-19T21:10:36.455Z,-2.80
2019-01-19T21:12:40.279Z,-2.80
2019-01-19T21:14:43.984Z,-2.80
2019-01-19T21:16:47.718Z,-2.90
2019-01-19T21:18:51.394Z,-2.90
2019-01-19T21:20:55.078Z,-2.90
2019-01-19T21:22:58.917Z,-2.90
2019-01-19T21:25:03.109Z,-2.90
2019-01-19T21:27:07.270Z,-2.90
2019-01-19T21:29:11.069Z,-2.90
2019-01-19T21:31:14.942Z,-3.00
2019-01-19T21:33:18.745Z,-3.00
2019-01-19T21:35:23.134Z,-3.00
2019-01-19T21:37:26.852Z,-3.00
2019-01-19T21:39:30.516Z,-3.00
2019-01-19T21:41:34.155Z,-3.00
2019-01-19T21:43:37.748Z,-3.10
2019-01-19T21:45:41.596Z,-3.10
2019-01-19T21:47:46.147Z,-3.10
2019-01-19T21:49:49.882Z,-3.10
2019-01-19T21:51:53.641Z,-3.10
2019-01-19T21:53:57.258Z,-3.10
2019-01-19T21:56:00.897Z,-3.20
2019-01-19T21:58:04.895Z,-3.20
2019-01-19T22:00:14.446Z,-3.20
2019-01-19T22:02:19.192Z,-3.30
2019-01-19T22:04:22.799Z,-3.30
2019-01-19T22:06:26.494Z,-3.30
2019-01-19T22:08:30.073Z,-3.40
2019-01-19T22:10:33.913Z,-3.40
2019-01-19T22:12:37.534Z,-3.40
2019-01-19T22:14:41.122Z,-3.40
2019-01-19T22:16:44.756Z,-3.40
2019-01-19T22:18:48.413Z,-3.50
2019-01-19T22:20:52.107Z,-3.50
2019-01-19T22:22:55.776Z,-3.50
2019-01-19T22:24:59.441Z,-3.50
2019-01-19T22:27:04.800Z,-3.50
2019-01-19T22:29:08.730Z,-3.50
2019-01-19T22:31:12.552Z,-3.60
2019-01-19T22:33:16.803Z,-3.60
2019-01-19T22:35:20.626Z,-3.60
2019-01-19T22:37:24.315Z,-3.60
2019-01-19T22:39:27.974Z,-3.60
2019-01-19T22:41:31.672Z,-3.70
2019-01-19T22:43:35.397Z,-3.70
2019-01-19T22:45:39.153Z,-3.70
2019-01-19T22:47:44.025Z,-3.70
2019-01-19T22:49:47.642Z,-3.80
2019-01-19T22:51:51.306Z,-3.80
2019-01-19T22:53:54.969Z,-3.80
2019-01-19T22:55:58.609Z,-3.80
2019-01-19T22:58:02.253Z,-3.80
2019-01-19T23:00:14.911Z,-3.80
2019-01-19T23:02:18.794Z,-3.80
2019-01-19T23:04:22.639Z,-3.80
2019-01-19T23:06:26.355Z,-3.80
2019-01-19T23:08:30.144Z,-3.80
2019-01-19T23:10:34.070Z,-3.80
2019-01-19T23:12:37.804Z,-3.80
2019-01-19T23:14:42.439Z,-3.80
2019-01-19T23:16:46.290Z,-3.80
2019-01-19T23:18:50.115Z,-3.90
2019-01-19T23:20:53.786Z,-3.90
2019-01-19T23:22:57.727Z,-3.90
2019-01-19T23:25:01.495Z,-3.90
2019-01-19T23:27:05.619Z,-4.00
2019-01-19T23:29:09.385Z,-4.00
2019-01-19T23:31:13.110Z,-4.00
2019-01-19T23:33:16.809Z,-4.00
2019-01-19T23:35:20.709Z,-4.00
2019-01-19T23:37:24.343Z,-4.10
2019-01-19T23:39:28.037Z,-4.10
2019-01-19T23:41:31.718Z,-4.10
2019-01-19T23:43:35.487Z,-4.10
2019-01-19T23:45:39.220Z,-4.10
2019-01-19T23:47:42.977Z,-4.10
2019-01-19T23:49:46.617Z,-4.10
2019-01-19T23:51:50.345Z,-4.10
2019-01-19T23:53:54.205Z,-4.10
2019-01-19T23:55:57.862Z,-4.10
2019-01-19T23:58:01.481Z,-4.10
